createdAt,value
2022-08-29T00:01:10.394Z,22.32
2022-08-29T00:03:37.507Z,22.49
2022-08-29T00:06:04.845Z,22.24
2022-08-29T00:08:31.910Z,22.68
2022-08-29T00:10:58.874Z,23.03
2022-08-29T00:13:26.046Z,23.10
2022-08-29T00:15:53.094Z,23.06
2022-08-29T00:18:21.151Z,23.07
2022-08-29T00:20:48.689Z,23.30
2022-08-29T00:23:16.137Z,23.66
2022-08-29T00:25:43.198Z,23.40
2022-08-29T00:28:10.335Z,23.15
2022-08-29T00:30:38.171Z,23.35
2022-08-29T00:33:05.230Z,23.58
2022-08-29T00:35:37.861Z,23.28
2022-08-29T00:38:08.334Z,22.94
2022-08-29T00:40:58.121Z,22.90
2022-08-29T00:43:36.276Z,23.12
2022-08-29T00:46:06.212Z,23.64
2022-08-29T00:48:36.482Z,23.70
2022-08-29T00:51:07.906Z,23.49
2022-08-29T00:53:39.824Z,23.47
2022-08-29T00:56:08.695Z,23.42
2022-08-29T00:58:46.702Z,23.43
2022-08-29T01:01:14.384Z,23.20
2022-08-29T01:03:43.075Z,23.15
2022-08-29T01:06:11.637Z,23.19
2022-08-29T01:08:38.561Z,23.13
2022-08-29T01:11:25.039Z,23.30
2022-08-29T01:13:55.092Z,23.60
2022-08-29T01:16:24.383Z,23.49
2022-08-29T01:18:58.288Z,23.57
2022-08-29T01:21:57.309Z,23.59
2022-08-29T01:24:30.262Z,23.45
2022-08-29T01:26:57.499Z,23.35
2022-08-29T01:29:24.663Z,23.45
2022-08-29T01:31:57.137Z,23.27
2022-08-29T01:34:26.475Z,23.48
2022-08-29T01:36:57.528Z,23.62
2022-08-29T01:39:27.692Z,23.68
2022-08-29T01:41:57.124Z,23.63
2022-08-29T01:44:26.407Z,23.59
2022-08-29T01:47:02.206Z,23.65
2022-08-29T01:49:31.664Z,23.63
2022-08-29T01:51:58.558Z,23.15
2022-08-29T01:54:25.508Z,23.20
2022-08-29T01:56:53.827Z,23.10
2022-08-29T01:59:25.549Z,22.89
2022-08-29T02:01:58.520Z,22.70
2022-08-29T02:04:25.617Z,22.15
2022-08-29T02:06:52.795Z,21.90
2022-08-29T02:09:19.878Z,21.78
2022-08-29T02:11:48.463Z,21.59
2022-08-29T02:14:19.247Z,21.80
2022-08-29T02:16:47.939Z,22.13
2022-08-29T02:19:16.181Z,21.99
2022-08-29T02:21:44.533Z,22.01
2022-08-29T02:24:25.086Z,22.02
2022-08-29T02:26:55.407Z,22.19
2022-08-29T02:29:23.258Z,22.51
2022-08-29T02:31:50.257Z,22.34
2022-08-29T02:34:18.166Z,22.32
2022-08-29T02:36:45.085Z,22.39
2022-08-29T02:39:16.138Z,22.24
2022-08-29T02:41:44.441Z,22.44
2022-08-29T02:44:11.936Z,22.56
2022-08-29T02:46:38.957Z,22.63
2022-08-29T02:49:06.042Z,22.86
2022-08-29T02:51:33.931Z,23.21
2022-08-29T02:54:01.976Z,23.44
2022-08-29T02:56:30.070Z,23.20
2022-08-29T02:58:57.830Z,23.14
2022-08-29T03:01:26.382Z,23.28
2022-08-29T03:03:53.913Z,22.97
2022-08-29T03:06:21.211Z,22.81
2022-08-29T03:08:48.152Z,23.12
2022-08-29T03:11:17.434Z,23.58
2022-08-29T03:13:45.377Z,23.97
2022-08-29T03:16:12.991Z,23.97
2022-08-29T03:18:40.080Z,24.07
2022-08-29T03:21:16.696Z,23.96
2022-08-29T03:23:43.883Z,23.41
2022-08-29T03:26:11.020Z,23.12
2022-08-29T03:28:37.940Z,23.06
2022-08-29T03:31:05.251Z,23.03
2022-08-29T03:33:32.244Z,23.50
2022-08-29T03:35:59.223Z,23.64
2022-08-29T03:38:26.189Z,23.43
2022-08-29T03:40:53.594Z,23.73
2022-08-29T03:43:25.133Z,23.78
2022-08-29T03:45:52.952Z,23.51
2022-08-29T03:48:19.887Z,23.46
2022-08-29T03:50:46.942Z,23.44
2022-08-29T03:53:13.879Z,23.25
2022-08-29T03:55:41.574Z,23.15
2022-08-29T03:58:08.669Z,23.00
2022-08-29T04:00:35.818Z,23.53
2022-08-29T04:03:02.909Z,23.74
2022-08-29T04:05:30.133Z,23.68
2022-08-29T04:07:59.320Z,23.60
2022-08-29T04:10:32.494Z,24.04
2022-08-29T04:13:00.752Z,24.62
2022-08-29T04:15:29.216Z,24.34
2022-08-29T04:17:58.551Z,24.36
2022-08-29T04:20:28.515Z,24.05
2022-08-29T04:22:57.118Z,23.79
2022-08-29T04:25:26.175Z,24.12
2022-08-29T04:27:54.606Z,24.40
2022-08-29T04:30:24.309Z,24.58
2022-08-29T04:32:51.885Z,24.59
2022-08-29T04:35:18.900Z,24.83
2022-08-29T04:37:45.918Z,25.12
2022-08-29T04:40:16.035Z,24.79
2022-08-29T04:42:44.228Z,24.69
2022-08-29T04:45:13.701Z,24.62
2022-08-29T04:47:42.161Z,24.73
2022-08-29T04:50:12.935Z,25.04
2022-08-29T04:52:40.364Z,25.60
2022-08-29T04:55:09.002Z,25.63
2022-08-29T04:57:38.306Z,25.94
2022-08-29T05:00:11.914Z,25.93
2022-08-29T05:02:40.210Z,26.33
2022-08-29T05:05:08.841Z,26.66
2022-08-29T05:07:38.314Z,26.99
2022-08-29T05:10:23.735Z,27.27
2022-08-29T05:12:50.748Z,27.42
2022-08-29T05:15:18.738Z,27.31
2022-08-29T05:17:45.729Z,27.21
2022-08-29T05:20:13.120Z,27.31
2022-08-29T05:22:42.383Z,27.38
2022-08-29T05:25:17.386Z,27.75
2022-08-29T05:27:45.925Z,28.36
2022-08-29T05:30:12.947Z,29.29
2022-08-29T05:32:39.857Z,30.75
2022-08-29T05:35:07.444Z,32.82
2022-08-29T05:37:34.927Z,33.47
2022-08-29T05:40:02.270Z,32.23
2022-08-29T05:42:29.512Z,31.61
2022-08-29T05:44:56.919Z,30.96
2022-08-29T05:47:23.870Z,30.21
2022-08-29T05:49:50.943Z,29.80
2022-08-29T05:52:19.976Z,29.67
2022-08-29T05:54:47.016Z,29.59
2022-08-29T05:57:19.192Z,29.61
2022-08-29T05:59:52.455Z,29.57
2022-08-29T06:02:21.370Z,29.62
2022-08-29T06:04:48.706Z,29.76
2022-08-29T06:07:15.945Z,30.75
2022-08-29T06:09:44.731Z,31.34
2022-08-29T06:12:14.399Z,32.14
2022-08-29T06:14:42.048Z,31.98
2022-08-29T06:17:17.763Z,31.79
2022-08-29T06:19:44.737Z,31.85
2022-08-29T06:22:11.788Z,32.01
2022-08-29T06:24:39.875Z,32.23
2022-08-29T06:27:11.333Z,32.02
2022-08-29T06:29:43.570Z,31.60
2022-08-29T06:32:12.161Z,32.13
2022-08-29T06:34:39.165Z,32.49
2022-08-29T06:37:06.205Z,33.10
2022-08-29T06:39:33.174Z,32.65
2022-08-29T06:42:00.152Z,33.17
2022-08-29T06:44:30.653Z,33.93
2022-08-29T06:46:58.830Z,33.77
2022-08-29T06:49:26.157Z,34.05
2022-08-29T06:51:57.587Z,33.64
2022-08-29T06:54:28.200Z,33.22
2022-08-29T06:56:56.602Z,33.54
2022-08-29T06:59:24.056Z,33.92
2022-08-29T07:01:51.121Z,33.39
2022-08-29T07:04:20.559Z,33.79
2022-08-29T07:06:48.981Z,33.99
2022-08-29T07:09:15.964Z,34.05
2022-08-29T07:11:43.503Z,34.74
2022-08-29T07:14:11.245Z,35.62
2022-08-29T07:16:39.064Z,35.56
2022-08-29T07:19:07.646Z,34.27
2022-08-29T07:21:34.672Z,34.35
2022-08-29T07:24:02.293Z,35.25
2022-08-29T07:26:33.847Z,35.95
2022-08-29T07:29:03.976Z,35.71
2022-08-29T07:31:31.665Z,35.40
2022-08-29T07:34:02.848Z,35.80
2022-08-29T07:36:34.642Z,35.62
2022-08-29T07:39:04.438Z,34.38
2022-08-29T07:41:31.414Z,34.08
2022-08-29T07:43:58.361Z,34.57
2022-08-29T07:46:27.101Z,34.11
2022-08-29T07:48:54.451Z,33.48
2022-08-29T07:51:23.351Z,32.93
2022-08-29T07:53:51.442Z,32.83
2022-08-29T07:56:23.062Z,32.76
2022-08-29T07:58:52.155Z,33.16
2022-08-29T08:01:21.243Z,33.84
2022-08-29T08:03:50.869Z,34.78
2022-08-29T08:06:20.946Z,35.54
2022-08-29T08:08:48.669Z,36.29
2022-08-29T08:11:16.711Z,37.23
2022-08-29T08:13:44.600Z,36.56
2022-08-29T08:16:17.220Z,35.17
2022-08-29T08:18:45.238Z,34.45
2022-08-29T08:21:13.474Z,34.57
2022-08-29T08:23:41.490Z,34.16
2022-08-29T08:26:10.211Z,34.16
2022-08-29T08:28:37.910Z,33.83
2022-08-29T08:31:07.948Z,33.98
2022-08-29T08:33:38.931Z,34.10
2022-08-29T08:36:22.539Z,34.11
2022-08-29T08:38:50.878Z,34.50
2022-08-29T08:41:34.749Z,36.20
2022-08-29T08:44:29.045Z,37.19
2022-08-29T08:47:01.689Z,37.11
2022-08-29T08:50:10.037Z,37.67
2022-08-29T08:53:02.793Z,38.54
2022-08-29T08:55:46.961Z,36.52
2022-08-29T08:58:36.980Z,35.73
2022-08-29T09:01:18.975Z,36.10
2022-08-29T09:04:20.771Z,36.74
2022-08-29T09:07:06.254Z,37.49
2022-08-29T09:10:05.288Z,37.56
2022-08-29T09:12:35.278Z,37.71
2022-08-29T09:15:16.037Z,37.66
2022-08-29T09:17:57.985Z,37.47
2022-08-29T09:20:28.995Z,37.77
2022-08-29T09:23:01.277Z,36.88
2022-08-29T09:25:30.297Z,37.16
2022-08-29T09:27:58.563Z,37.72
2022-08-29T09:30:28.879Z,37.78
2022-08-29T09:33:04.865Z,38.45
2022-08-29T09:35:53.005Z,37.21
2022-08-29T09:38:28.297Z,35.50
2022-08-29T09:40:55.622Z,34.48
2022-08-29T09:43:44.369Z,34.71
2022-08-29T09:46:11.506Z,35.36
2022-08-29T09:49:00.193Z,36.96
2022-08-29T09:51:48.473Z,36.33
2022-08-29T09:54:28.504Z,36.25
2022-08-29T09:57:02.670Z,34.03
2022-08-29T09:59:35.925Z,33.89
2022-08-29T10:02:24.649Z,33.64
2022-08-29T10:05:02.809Z,32.74
2022-08-29T10:07:37.691Z,33.18
2022-08-29T10:10:20.069Z,33.79
2022-08-29T10:13:12.936Z,34.14
2022-08-29T10:15:51.373Z,34.73
2022-08-29T10:18:46.247Z,33.93
2022-08-29T10:21:29.339Z,33.78
2022-08-29T10:24:24.402Z,33.60
2022-08-29T10:26:56.821Z,33.64
2022-08-29T10:30:07.623Z,33.06
2022-08-29T10:32:58.974Z,33.26
2022-08-29T10:35:35.374Z,32.64
2022-08-29T10:38:24.417Z,32.63
2022-08-29T10:41:02.030Z,32.66
2022-08-29T10:43:32.018Z,31.89
2022-08-29T10:46:10.893Z,31.92
2022-08-29T10:48:52.789Z,31.67
2022-08-29T10:51:51.827Z,32.17
2022-08-29T10:54:48.689Z,34.26
2022-08-29T10:57:44.384Z,35.15
2022-08-29T11:00:24.692Z,34.97
2022-08-29T11:03:10.323Z,33.53
2022-08-29T11:05:49.442Z,32.99
2022-08-29T11:08:35.138Z,32.90
2022-08-29T11:11:02.124Z,33.13
2022-08-29T11:13:36.051Z,33.27
2022-08-29T11:16:05.800Z,33.71
2022-08-29T11:18:40.918Z,34.45
2022-08-29T11:21:27.402Z,34.01
2022-08-29T11:23:56.406Z,34.31
2022-08-29T11:26:23.287Z,33.99
2022-08-29T11:29:28.318Z,34.88
2022-08-29T11:32:27.232Z,35.27
2022-08-29T11:35:15.066Z,34.66
2022-08-29T11:38:03.845Z,34.83
2022-08-29T11:43:43.224Z,34.37
2022-08-29T11:46:14.023Z,34.90
2022-08-29T11:48:46.231Z,34.94
2022-08-29T11:51:42.639Z,34.46
2022-08-29T11:54:25.188Z,33.57
2022-08-29T11:57:01.663Z,34.47
2022-08-29T11:59:50.077Z,35.08
2022-08-29T12:02:31.926Z,34.68
2022-08-29T12:05:28.111Z,33.53
2022-08-29T12:08:35.550Z,34.05
2022-08-29T12:11:00.643Z,34.59
2022-08-29T12:13:48.536Z,33.73
2022-08-29T12:16:27.121Z,33.45
2022-08-29T12:18:56.645Z,33.42
2022-08-29T12:21:39.533Z,34.68
2022-08-29T12:24:28.120Z,34.19
2022-08-29T12:26:55.351Z,33.39
2022-08-29T12:29:41.052Z,33.81
2022-08-29T12:32:23.841Z,33.77
2022-08-29T12:35:09.980Z,34.11
2022-08-29T12:37:46.415Z,33.94
2022-08-29T12:40:36.859Z,33.50
2022-08-29T12:43:25.552Z,33.11
2022-08-29T12:45:53.854Z,33.11
2022-08-29T12:48:25.967Z,33.76
2022-08-29T12:50:54.077Z,33.81
2022-08-29T12:53:33.416Z,33.29
2022-08-29T12:56:02.515Z,32.96
2022-08-29T12:58:56.772Z,33.99
2022-08-29T13:01:39.076Z,34.19
2022-08-29T13:04:15.515Z,32.81
2022-08-29T13:06:59.146Z,33.59
2022-08-29T13:09:27.396Z,33.99
2022-08-29T13:12:26.843Z,33.60
2022-08-29T13:15:00.674Z,32.46
2022-08-29T13:17:30.699Z,32.35
2022-08-29T13:20:38.858Z,32.40
2022-08-29T13:23:11.976Z,32.08
2022-08-29T13:26:07.050Z,32.62
2022-08-29T13:28:54.564Z,32.50
2022-08-29T13:31:30.501Z,32.72
2022-08-29T13:33:57.414Z,32.12
2022-08-29T13:36:27.159Z,32.05
2022-08-29T13:39:27.197Z,31.44
2022-08-29T13:42:03.006Z,31.52
2022-08-29T13:44:36.308Z,32.14
2022-08-29T13:47:14.038Z,32.12
2022-08-29T13:49:41.595Z,32.17
2022-08-29T13:52:10.572Z,32.32
2022-08-29T13:54:43.159Z,31.61
2022-08-29T13:57:17.575Z,31.70
2022-08-29T13:59:44.980Z,32.12
2022-08-29T14:02:14.921Z,32.30
2022-08-29T14:04:43.337Z,32.60
2022-08-29T14:07:17.476Z,32.33
2022-08-29T14:09:46.183Z,32.74
2022-08-29T14:12:14.900Z,32.75
2022-08-29T14:14:45.604Z,32.56
2022-08-29T14:17:18.498Z,32.28
2022-08-29T14:19:46.989Z,32.55
2022-08-29T14:22:14.653Z,31.93
2022-08-29T14:24:42.375Z,32.22
2022-08-29T14:27:09.691Z,31.37
2022-08-29T14:29:37.089Z,31.03
2022-08-29T14:32:04.912Z,31.67
2022-08-29T14:34:33.104Z,31.69
2022-08-29T14:37:01.235Z,31.62
2022-08-29T14:39:28.898Z,31.21
2022-08-29T14:41:56.019Z,31.80
2022-08-29T14:44:23.621Z,32.07
2022-08-29T14:46:51.380Z,32.08
2022-08-29T14:49:19.201Z,31.77
2022-08-29T14:51:46.839Z,31.67
2022-08-29T14:54:13.939Z,31.11
2022-08-29T14:56:48.607Z,31.37
2022-08-29T14:59:17.350Z,31.52
2022-08-29T15:01:48.675Z,31.80
2022-08-29T15:04:34.820Z,31.96
2022-08-29T15:07:13.793Z,31.84
2022-08-29T15:09:43.810Z,31.79
2022-08-29T15:12:16.971Z,31.56
2022-08-29T15:14:45.091Z,31.47
2022-08-29T15:17:13.166Z,31.49
2022-08-29T15:22:27.916Z,31.20
2022-08-29T15:24:54.902Z,31.21
2022-08-29T15:27:27.384Z,31.14
2022-08-29T15:29:55.491Z,30.01
2022-08-29T15:32:22.745Z,29.39
2022-08-29T15:34:49.867Z,29.19
2022-08-29T15:37:17.105Z,29.15
2022-08-29T15:39:44.099Z,28.99
2022-08-29T15:42:12.119Z,28.97
2022-08-29T15:44:44.665Z,29.42
2022-08-29T15:47:11.716Z,29.76
2022-08-29T15:49:39.674Z,29.95
2022-08-29T15:52:06.910Z,30.12
2022-08-29T15:54:33.872Z,29.93
2022-08-29T15:57:00.750Z,29.71
2022-08-29T15:59:54.192Z,29.83
2022-08-29T16:02:15.458Z,29.43
2022-08-29T16:04:47.864Z,29.33
2022-08-29T16:07:15.857Z,29.21
2022-08-29T16:09:43.498Z,29.10
2022-08-29T16:12:11.845Z,29.17
2022-08-29T16:14:58.458Z,28.95
2022-08-29T16:17:29.846Z,28.96
2022-08-29T16:19:58.198Z,28.95
2022-08-29T16:22:27.861Z,28.95
2022-08-29T16:24:55.330Z,29.03
2022-08-29T16:27:24.261Z,28.68
2022-08-29T16:29:52.996Z,28.57
2022-08-29T16:32:20.299Z,28.37
2022-08-29T16:34:47.343Z,27.82
2022-08-29T16:37:14.687Z,27.32
2022-08-29T16:39:41.677Z,27.47
2022-08-29T16:42:09.413Z,27.19
2022-08-29T16:44:36.509Z,27.06
2022-08-29T16:47:03.491Z,27.23
2022-08-29T16:49:30.925Z,27.05
2022-08-29T16:51:57.819Z,27.26
2022-08-29T16:54:24.710Z,27.33
2022-08-29T16:56:52.469Z,27.68
2022-08-29T16:59:19.408Z,27.60
2022-08-29T17:01:49.151Z,27.57
2022-08-29T17:04:22.091Z,27.46
2022-08-29T17:06:49.449Z,27.38
2022-08-29T17:09:18.388Z,26.99
2022-08-29T17:11:46.028Z,26.83
2022-08-29T17:14:14.126Z,27.01
2022-08-29T17:16:42.698Z,27.25
2022-08-29T17:19:09.821Z,27.28
2022-08-29T17:21:37.731Z,27.20
2022-08-29T17:24:08.913Z,27.36
2022-08-29T17:26:40.819Z,27.26
2022-08-29T17:29:10.189Z,27.72
2022-08-29T17:31:38.911Z,27.36
2022-08-29T17:34:07.566Z,27.48
2022-08-29T17:36:36.744Z,27.45
2022-08-29T17:39:05.758Z,27.41
2022-08-29T17:41:34.878Z,26.90
2022-08-29T17:44:02.315Z,27.11
2022-08-29T17:46:30.086Z,27.12
2022-08-29T17:48:57.174Z,26.81
2022-08-29T17:51:24.773Z,26.84
2022-08-29T17:53:52.428Z,26.81
2022-08-29T17:56:26.866Z,27.35
2022-08-29T17:58:53.931Z,27.34
2022-08-29T18:01:21.011Z,27.40
2022-08-29T18:03:47.971Z,27.34
2022-08-29T18:06:15.416Z,27.27
2022-08-29T18:08:47.754Z,26.75
2022-08-29T18:11:17.048Z,26.45
2022-08-29T18:13:44.486Z,26.58
2022-08-29T18:16:12.267Z,27.13
2022-08-29T18:18:39.595Z,27.10
2022-08-29T18:21:07.374Z,27.14
2022-08-29T18:23:35.441Z,27.24
2022-08-29T18:26:03.520Z,27.07
2022-08-29T18:28:30.966Z,27.01
2022-08-29T18:30:58.860Z,26.99
2022-08-29T18:33:38.774Z,26.76
2022-08-29T18:36:11.555Z,26.76
2022-08-29T18:38:38.497Z,26.79
2022-08-29T18:41:06.483Z,26.98
2022-08-29T18:43:34.879Z,26.81
2022-08-29T18:46:06.230Z,26.89
2022-08-29T18:48:33.329Z,27.17
2022-08-29T18:51:00.295Z,27.24
2022-08-29T18:53:31.633Z,27.11
2022-08-29T18:56:00.733Z,26.60
2022-08-29T18:58:30.654Z,26.69
2022-08-29T19:00:59.459Z,26.36
2022-08-29T19:03:26.688Z,26.18
2022-08-29T19:05:54.102Z,26.25
2022-08-29T19:08:24.729Z,26.64
2022-08-29T19:10:55.255Z,26.71
2022-08-29T19:13:25.120Z,26.90
2022-08-29T19:15:56.507Z,26.74
2022-08-29T19:18:23.713Z,26.53
2022-08-29T19:21:02.817Z,26.65
2022-08-29T19:23:31.288Z,26.50
2022-08-29T19:25:58.527Z,26.44
2022-08-29T19:28:27.632Z,26.42
2022-08-29T19:30:55.529Z,26.18
2022-08-29T19:33:22.943Z,25.99
2022-08-29T19:35:51.523Z,26.10
2022-08-29T19:38:20.401Z,26.45
2022-08-29T19:40:48.762Z,26.44
2022-08-29T19:43:16.130Z,26.48
2022-08-29T19:45:44.364Z,26.41
2022-08-29T19:48:15.103Z,26.38
2022-08-29T19:50:43.090Z,25.95
2022-08-29T19:53:21.505Z,25.98
2022-08-29T19:55:54.617Z,26.21
2022-08-29T19:58:31.068Z,26.28
2022-08-29T20:01:00.669Z,26.22
2022-08-29T20:03:28.966Z,26.34
2022-08-29T20:05:56.523Z,26.30
2022-08-29T20:08:23.491Z,26.30
2022-08-29T20:10:51.350Z,26.19
2022-08-29T20:13:19.783Z,26.03
2022-08-29T20:15:47.329Z,26.12
2022-08-29T20:18:14.943Z,25.92
2022-08-29T20:20:41.921Z,25.90
2022-08-29T20:23:09.214Z,25.99
2022-08-29T20:25:36.441Z,26.10
2022-08-29T20:28:05.999Z,26.27
2022-08-29T20:30:34.722Z,26.31
2022-08-29T20:33:02.157Z,26.14
2022-08-29T20:35:47.536Z,25.99
2022-08-29T20:38:15.043Z,26.11
2022-08-29T20:40:46.889Z,25.82
2022-08-29T20:43:14.945Z,25.13
2022-08-29T20:45:42.699Z,24.84
2022-08-29T20:48:10.554Z,24.72
2022-08-29T20:50:37.633Z,24.19
2022-08-29T20:53:05.909Z,24.11
2022-08-29T20:55:32.978Z,24.43
2022-08-29T20:58:00.180Z,24.39
2022-08-29T21:00:27.953Z,24.45
2022-08-29T21:03:13.553Z,24.43
2022-08-29T21:05:43.507Z,24.40
2022-08-29T21:08:14.994Z,24.71
2022-08-29T21:10:43.001Z,23.79
2022-08-29T21:13:10.763Z,23.71
2022-08-29T21:15:39.978Z,23.54
2022-08-29T21:18:07.983Z,23.66
2022-08-29T21:20:44.994Z,23.82
2022-08-29T21:23:23.251Z,23.72
2022-08-29T21:25:56.014Z,23.73
2022-08-29T21:28:24.918Z,23.87
2022-08-29T21:30:52.593Z,23.86
2022-08-29T21:33:20.792Z,23.85
2022-08-29T21:35:50.205Z,23.71
2022-08-29T21:38:17.832Z,23.73
2022-08-29T21:40:51.018Z,23.93
2022-08-29T21:43:19.848Z,23.93
2022-08-29T21:45:47.724Z,23.63
2022-08-29T21:48:14.751Z,23.78
2022-08-29T21:50:42.002Z,23.99
2022-08-29T21:53:14.971Z,24.02
2022-08-29T21:55:42.418Z,24.12
2022-08-29T21:58:09.499Z,23.87
2022-08-29T22:00:37.990Z,23.88
2022-08-29T22:03:07.103Z,23.87
2022-08-29T22:05:34.059Z,24.03
2022-08-29T22:08:03.297Z,24.37
2022-08-29T22:10:33.725Z,24.16
2022-08-29T22:13:01.932Z,24.24
2022-08-29T22:15:47.738Z,24.43
2022-08-29T22:18:15.312Z,24.34
2022-08-29T22:20:47.655Z,24.34
2022-08-29T22:23:20.547Z,23.84
2022-08-29T22:25:47.641Z,23.17
2022-08-29T22:28:14.621Z,23.42
2022-08-29T22:30:41.680Z,23.11
2022-08-29T22:33:09.038Z,22.85
2022-08-29T22:35:43.250Z,22.87
2022-08-29T22:38:10.475Z,23.15
2022-08-29T22:40:37.540Z,23.50
2022-08-29T22:43:04.715Z,23.53
2022-08-29T22:45:32.409Z,23.53
2022-08-29T22:47:59.446Z,23.87
2022-08-29T22:50:26.492Z,23.74
2022-08-29T22:52:58.091Z,23.49
2022-08-29T22:57:51.487Z,23.82
2022-08-29T23:00:22.663Z,23.88
2022-08-29T23:02:50.880Z,23.96
2022-08-29T23:05:20.043Z,23.92
2022-08-29T23:07:47.005Z,23.78
2022-08-29T23:10:15.134Z,23.62
2022-08-29T23:12:42.236Z,23.56
2022-08-29T23:15:13.606Z,23.61
2022-08-29T23:17:41.238Z,23.73
2022-08-29T23:20:11.674Z,23.67
2022-08-29T23:22:42.830Z,23.55
2022-08-29T23:25:12.261Z,23.26
2022-08-29T23:27:40.018Z,23.22
2022-08-29T23:30:12.088Z,22.97
2022-08-29T23:32:39.205Z,22.48
2022-08-29T23:35:07.727Z,22.07
2022-08-29T23:37:34.913Z,21.93
2022-08-29T23:40:02.462Z,22.23
2022-08-29T23:42:29.548Z,22.37
2022-08-29T23:44:57.601Z,22.70
2022-08-29T23:47:24.551Z,22.89
2022-08-29T23:49:51.582Z,23.14
2022-08-29T23:52:18.789Z,23.02
2022-08-29T23:54:45.781Z,22.88
2022-08-29T23:57:12.895Z,22.73
2022-08-29T23:59:58.537Z,22.87
